createdAt,value
2023-03-17T00:00:20.169Z,2.55
2023-03-17T00:02:48.662Z,1.95
2023-03-17T00:05:17.489Z,1.73
2023-03-17T00:07:46.173Z,4.05
2023-03-17T00:10:32.221Z,3.92
2023-03-17T00:12:59.724Z,1.40
2023-03-17T00:15:27.529Z,2.60
2023-03-17T00:17:55.545Z,2.70
2023-03-17T00:20:31.175Z,1.63
2023-03-17T00:22:59.738Z,2.55
2023-03-17T00:25:28.224Z,1.85
2023-03-17T00:27:56.144Z,2.38
2023-03-17T00:30:24.414Z,2.55
2023-03-17T00:32:52.939Z,1.48
2023-03-17T00:35:24.712Z,1.65
2023-03-17T00:37:53.544Z,1.83
2023-03-17T00:40:21.521Z,1.40
2023-03-17T00:42:49.055Z,4.00
2023-03-17T00:45:16.815Z,2.40
2023-03-17T00:47:45.417Z,1.40
2023-03-17T00:50:17.269Z,2.85
2023-03-17T00:52:45.431Z,0.80
2023-03-17T00:55:13.218Z,1.63
2023-03-17T00:57:40.796Z,1.60
2023-03-17T01:00:18.217Z,3.67
2023-03-17T01:02:45.729Z,1.80
2023-03-17T01:05:13.507Z,1.80
2023-03-17T01:07:40.817Z,0.95
2023-03-17T01:10:14.195Z,2.90
2023-03-17T01:12:41.308Z,1.55
2023-03-17T01:15:08.628Z,1.15
2023-03-17T01:17:35.820Z,1.52
2023-03-17T01:20:02.962Z,2.15
2023-03-17T01:22:30.105Z,0.88
2023-03-17T01:24:57.200Z,1.55
2023-03-17T01:27:25.387Z,1.00
2023-03-17T01:29:55.850Z,2.33
2023-03-17T01:32:23.185Z,1.20
2023-03-17T01:34:50.940Z,1.58
2023-03-17T01:37:18.079Z,1.42
2023-03-17T01:39:45.488Z,1.92
2023-03-17T01:42:13.640Z,1.40
2023-03-17T01:44:59.858Z,2.08
2023-03-17T01:47:28.910Z,1.60
2023-03-17T01:49:56.809Z,2.15
2023-03-17T01:52:24.288Z,2.08
2023-03-17T01:54:55.515Z,2.83
2023-03-17T01:57:28.689Z,0.70
2023-03-17T02:00:08.324Z,1.85
2023-03-17T02:02:37.762Z,1.42
2023-03-17T02:05:06.136Z,2.03
2023-03-17T02:07:33.290Z,2.25
2023-03-17T02:10:01.007Z,1.45
2023-03-17T02:12:29.482Z,1.80
2023-03-17T02:14:57.371Z,1.48
2023-03-17T02:17:25.838Z,0.80
2023-03-17T02:19:53.164Z,7.63
2023-03-17T02:22:20.451Z,0.85
2023-03-17T02:24:55.741Z,1.00
2023-03-17T02:27:27.685Z,3.40
2023-03-17T02:29:54.811Z,1.30
2023-03-17T02:32:22.007Z,0.80
2023-03-17T02:34:49.688Z,1.25
2023-03-17T02:37:17.602Z,1.13
2023-03-17T02:39:44.810Z,1.83
2023-03-17T02:42:12.736Z,3.50
2023-03-17T02:44:40.474Z,1.20
2023-03-17T02:47:08.604Z,1.13
2023-03-17T02:49:36.628Z,1.20
2023-03-17T02:52:04.384Z,2.63
2023-03-17T02:54:32.232Z,0.95
2023-03-17T02:56:59.549Z,7.38
2023-03-17T02:59:26.794Z,1.20
2023-03-17T03:01:54.113Z,1.10
2023-03-17T03:04:21.345Z,1.10
2023-03-17T03:06:48.539Z,1.75
2023-03-17T03:09:17.729Z,1.05
2023-03-17T03:11:45.143Z,2.05
2023-03-17T03:14:12.256Z,0.93
2023-03-17T03:16:39.477Z,1.30
2023-03-17T03:19:06.994Z,0.95
2023-03-17T03:21:34.254Z,1.88
2023-03-17T03:24:01.404Z,2.55
2023-03-17T03:26:28.531Z,1.80
2023-03-17T03:28:57.441Z,0.80
2023-03-17T03:31:25.016Z,1.75
2023-03-17T03:33:52.411Z,1.65
2023-03-17T03:36:19.713Z,0.68
2023-03-17T03:38:46.949Z,0.80
2023-03-17T03:41:14.349Z,1.48
2023-03-17T03:43:42.161Z,3.35
2023-03-17T03:46:09.780Z,0.95
2023-03-17T03:48:36.936Z,0.93
2023-03-17T03:51:04.136Z,0.88
2023-03-17T03:53:31.358Z,0.80
2023-03-17T03:55:58.680Z,3.92
2023-03-17T03:58:25.817Z,0.77
2023-03-17T04:00:53.930Z,2.90
2023-03-17T04:03:21.043Z,0.82
2023-03-17T04:05:48.264Z,1.95
2023-03-17T04:08:15.549Z,0.90
2023-03-17T04:10:42.845Z,14.60
2023-03-17T04:13:09.959Z,0.90
2023-03-17T04:15:37.518Z,1.50
2023-03-17T04:18:05.288Z,1.98
2023-03-17T04:20:32.982Z,0.80
2023-03-17T04:23:00.461Z,1.63
2023-03-17T04:25:27.565Z,1.02
2023-03-17T04:27:54.755Z,1.23
2023-03-17T04:30:22.058Z,0.80
2023-03-17T04:32:49.191Z,0.80
2023-03-17T04:35:18.337Z,0.85
2023-03-17T04:37:46.517Z,0.90
2023-03-17T04:40:14.197Z,1.85
2023-03-17T04:42:41.791Z,1.17
2023-03-17T04:45:11.160Z,1.55
2023-03-17T04:47:39.348Z,2.03
2023-03-17T04:50:08.091Z,1.75
2023-03-17T04:52:35.727Z,1.30
2023-03-17T04:55:03.248Z,1.25
2023-03-17T04:57:30.477Z,1.42
2023-03-17T04:59:57.727Z,1.40
2023-03-17T05:02:24.946Z,0.70
2023-03-17T05:04:52.386Z,2.05
2023-03-17T05:07:19.601Z,0.80
2023-03-17T05:09:47.431Z,0.93
2023-03-17T05:12:14.707Z,0.82
2023-03-17T05:14:42.136Z,1.05
2023-03-17T05:17:09.392Z,2.08
2023-03-17T05:19:36.522Z,1.95
2023-03-17T05:22:03.692Z,2.88
2023-03-17T05:24:30.864Z,4.65
2023-03-17T05:26:58.148Z,2.17
2023-03-17T05:29:25.336Z,1.95
2023-03-17T05:31:52.630Z,0.80
2023-03-17T05:34:19.782Z,2.85
2023-03-17T05:36:46.917Z,3.00
2023-03-17T05:39:14.731Z,2.55
2023-03-17T05:41:42.956Z,0.70
2023-03-17T05:44:10.396Z,4.03
2023-03-17T05:46:37.673Z,3.17
2023-03-17T05:49:04.868Z,1.27
2023-03-17T05:51:31.991Z,1.48
2023-03-17T05:53:59.262Z,0.88
2023-03-17T05:56:33.183Z,0.73
2023-03-17T05:59:01.619Z,1.15
2023-03-17T06:01:29.201Z,1.05
2023-03-17T06:03:56.531Z,28.38
2023-03-17T06:06:24.587Z,1.17
2023-03-17T06:08:52.489Z,2.08
2023-03-17T06:11:21.426Z,1.33
2023-03-17T06:13:48.591Z,2.03
2023-03-17T06:16:15.900Z,2.22
2023-03-17T06:18:43.167Z,1.83
2023-03-17T06:21:10.429Z,1.00
2023-03-17T06:23:37.581Z,0.93
2023-03-17T06:26:04.704Z,1.83
2023-03-17T06:28:32.173Z,0.80
2023-03-17T06:30:59.355Z,2.30
2023-03-17T06:33:27.148Z,0.70
2023-03-17T06:35:54.345Z,1.25
2023-03-17T06:38:22.019Z,1.55
2023-03-17T06:40:49.170Z,1.20
2023-03-17T06:43:17.510Z,0.60
2023-03-17T06:45:44.607Z,1.20
2023-03-17T06:48:12.237Z,1.92
2023-03-17T06:50:39.508Z,1.20
2023-03-17T06:53:07.207Z,0.68
2023-03-17T06:55:34.428Z,1.60
2023-03-17T06:58:03.038Z,2.80
2023-03-17T07:00:30.342Z,1.38
2023-03-17T07:02:57.866Z,2.53
2023-03-17T07:05:25.009Z,1.52
2023-03-17T07:07:52.142Z,5.78
2023-03-17T07:10:19.365Z,0.52
2023-03-17T07:12:46.996Z,0.98
2023-03-17T07:15:14.221Z,0.85
2023-03-17T07:17:41.630Z,0.60
2023-03-17T07:20:09.673Z,0.95
2023-03-17T07:22:36.819Z,1.90
2023-03-17T07:25:04.258Z,7.50
2023-03-17T07:27:31.404Z,1.63
2023-03-17T07:30:00.457Z,0.52
2023-03-17T07:32:28.046Z,0.95
2023-03-17T07:34:55.384Z,2.25
2023-03-17T07:37:22.550Z,0.60
2023-03-17T07:39:49.819Z,1.00
2023-03-17T07:42:17.614Z,0.60
2023-03-17T07:44:45.556Z,0.63
2023-03-17T07:47:13.303Z,0.77
2023-03-17T07:49:42.214Z,2.92
2023-03-17T07:52:10.325Z,1.73
2023-03-17T07:54:37.738Z,0.95
2023-03-17T07:57:05.302Z,3.40
2023-03-17T07:59:32.664Z,0.75
2023-03-17T08:02:01.338Z,3.65
2023-03-17T08:04:28.893Z,0.68
2023-03-17T08:06:57.134Z,1.20
2023-03-17T08:09:24.387Z,1.83
2023-03-17T08:11:51.597Z,4.40
2023-03-17T08:14:18.808Z,4.93
2023-03-17T08:16:46.055Z,0.60
2023-03-17T08:19:13.309Z,2.22
2023-03-17T08:21:43.133Z,0.55
2023-03-17T08:24:10.859Z,1.77
2023-03-17T08:26:38.309Z,2.30
2023-03-17T08:29:05.662Z,1.02
2023-03-17T08:31:33.912Z,4.32
2023-03-17T08:34:02.685Z,0.52
2023-03-17T08:36:30.202Z,5.63
2023-03-17T08:38:57.653Z,0.70
2023-03-17T08:41:26.871Z,2.15
2023-03-17T08:43:54.360Z,3.03
2023-03-17T08:46:23.505Z,0.80
2023-03-17T08:48:51.557Z,1.05
2023-03-17T08:51:22.091Z,2.38
2023-03-17T08:53:51.255Z,2.78
2023-03-17T08:56:18.521Z,3.88
2023-03-17T08:58:46.060Z,2.63
2023-03-17T09:01:13.774Z,4.30
2023-03-17T09:03:41.136Z,3.42
2023-03-17T09:06:09.409Z,5.88
2023-03-17T09:08:45.218Z,1.35
2023-03-17T09:11:13.849Z,1.55
2023-03-17T09:13:41.447Z,1.65
2023-03-17T09:16:08.856Z,2.20
2023-03-17T09:18:36.291Z,1.02
2023-03-17T09:21:05.060Z,0.85
2023-03-17T09:23:33.606Z,2.78
2023-03-17T09:26:01.166Z,2.47
2023-03-17T09:28:29.190Z,2.80
2023-03-17T09:30:59.772Z,1.33
2023-03-17T09:33:27.224Z,1.65
2023-03-17T09:35:56.853Z,1.42
2023-03-17T09:38:24.913Z,2.97
2023-03-17T09:40:59.407Z,2.00
2023-03-17T09:43:26.938Z,2.85
2023-03-17T09:45:54.304Z,0.85
2023-03-17T09:48:30.385Z,1.10
2023-03-17T09:51:08.965Z,1.73
2023-03-17T09:53:37.549Z,0.98
2023-03-17T09:56:18.612Z,2.72
2023-03-17T09:58:58.006Z,1.48
2023-03-17T10:01:26.405Z,1.15
2023-03-17T10:03:53.689Z,1.25
2023-03-17T10:06:28.420Z,2.17
2023-03-17T10:09:01.607Z,0.88
2023-03-17T10:11:38.850Z,2.10
2023-03-17T10:14:12.257Z,1.73
2023-03-17T10:16:46.822Z,0.85
2023-03-17T10:19:23.259Z,0.88
2023-03-17T10:21:53.600Z,1.63
2023-03-17T10:24:22.102Z,0.80
2023-03-17T10:26:50.825Z,0.65
2023-03-17T10:29:22.719Z,1.27
2023-03-17T10:31:50.654Z,2.33
2023-03-17T10:34:20.204Z,0.38
2023-03-17T10:36:48.312Z,2.50
2023-03-17T10:39:18.643Z,1.40
2023-03-17T10:41:55.276Z,2.35
2023-03-17T10:44:27.615Z,1.98
2023-03-17T10:46:57.941Z,2.72
2023-03-17T10:49:26.539Z,4.63
2023-03-17T10:51:55.197Z,2.97
2023-03-17T10:54:24.550Z,1.17
2023-03-17T10:56:58.891Z,7.38
2023-03-17T10:59:28.324Z,1.35
2023-03-17T11:01:58.494Z,12.57
2023-03-17T11:04:40.015Z,0.82
2023-03-17T11:07:10.756Z,1.63
2023-03-17T11:09:38.380Z,2.33
2023-03-17T11:12:08.785Z,1.63
2023-03-17T11:14:36.597Z,5.05
2023-03-17T11:17:26.999Z,1.42
2023-03-17T11:19:58.775Z,1.40
2023-03-17T11:22:25.903Z,6.78
2023-03-17T11:25:14.158Z,4.68
2023-03-17T11:28:02.579Z,1.42
2023-03-17T11:30:40.440Z,0.50
2023-03-17T11:33:22.684Z,1.17
2023-03-17T11:35:54.969Z,1.40
2023-03-17T11:38:22.133Z,1.42
2023-03-17T11:40:52.298Z,0.60
2023-03-17T11:43:39.994Z,2.70
2023-03-17T11:46:07.513Z,2.20
2023-03-17T11:48:53.354Z,1.88
2023-03-17T11:51:37.512Z,2.05
2023-03-17T11:54:10.667Z,1.30
2023-03-17T11:56:43.387Z,2.90
2023-03-17T11:59:20.601Z,2.97
2023-03-17T12:01:59.554Z,1.05
2023-03-17T12:04:30.566Z,0.82
2023-03-17T12:07:01.733Z,0.57
2023-03-17T12:09:33.124Z,0.60
2023-03-17T12:12:01.712Z,2.65
2023-03-17T12:14:32.554Z,0.70
2023-03-17T12:17:00.648Z,1.15
2023-03-17T12:19:33.814Z,2.38
2023-03-17T12:22:07.080Z,4.32
2023-03-17T12:24:46.949Z,1.42
2023-03-17T12:27:21.912Z,1.38
2023-03-17T12:30:00.190Z,2.63
2023-03-17T12:32:50.328Z,1.60
2023-03-17T12:35:34.908Z,0.60
2023-03-17T12:38:06.798Z,3.45
2023-03-17T12:40:39.996Z,2.38
2023-03-17T12:43:18.892Z,1.27
2023-03-17T12:46:04.525Z,2.05
2023-03-17T12:48:50.745Z,1.58
2023-03-17T12:51:41.324Z,2.65
2023-03-17T12:54:20.291Z,2.35
2023-03-17T12:56:48.560Z,2.08
2023-03-17T12:59:25.937Z,4.68
2023-03-17T13:02:06.275Z,3.25
2023-03-17T13:04:36.068Z,4.38
2023-03-17T13:07:06.421Z,2.90
2023-03-17T13:09:39.586Z,1.17
2023-03-17T13:12:08.805Z,1.27
2023-03-17T13:14:41.987Z,4.72
2023-03-17T13:17:12.671Z,1.23
2023-03-17T13:19:55.668Z,1.90
2023-03-17T13:22:22.752Z,3.83
2023-03-17T13:24:54.178Z,1.13
2023-03-17T13:27:33.516Z,13.20
2023-03-17T13:30:18.794Z,1.65
2023-03-17T13:32:56.391Z,2.67
2023-03-17T13:35:37.670Z,43.17
2023-03-17T13:38:14.254Z,7.20
2023-03-17T13:41:01.644Z,8.82
2023-03-17T13:43:43.492Z,8.15
2023-03-17T13:46:19.832Z,15.60
2023-03-17T13:48:47.061Z,6.45
2023-03-17T13:51:23.248Z,9.18
2023-03-17T13:53:56.401Z,5.15
2023-03-17T13:56:26.442Z,11.00
2023-03-17T13:58:59.603Z,5.72
2023-03-17T14:01:27.787Z,24.35
2023-03-17T14:03:56.512Z,0.77
2023-03-17T14:06:28.066Z,0.70
2023-03-17T14:08:57.896Z,4.03
2023-03-17T14:11:29.656Z,2.55
2023-03-17T14:14:31.648Z,5.80
2023-03-17T14:17:08.129Z,0.80
2023-03-17T14:19:38.978Z,1.33
2023-03-17T14:22:19.678Z,3.95
2023-03-17T14:24:46.792Z,0.90
2023-03-17T14:27:15.208Z,2.22
2023-03-17T14:29:43.286Z,1.70
2023-03-17T14:32:13.630Z,1.27
2023-03-17T14:34:45.266Z,1.60
2023-03-17T14:37:12.548Z,0.98
2023-03-17T14:39:45.246Z,2.50
2023-03-17T14:42:12.488Z,1.23
2023-03-17T14:44:40.391Z,0.68
2023-03-17T14:47:13.953Z,3.75
2023-03-17T14:52:17.039Z,1.25
2023-03-17T14:54:44.128Z,3.22
2023-03-17T14:57:16.091Z,9.27
2023-03-17T14:59:44.098Z,1.23
2023-03-17T15:02:25.575Z,4.00
2023-03-17T15:05:01.908Z,6.03
2023-03-17T15:07:30.771Z,2.03
2023-03-17T15:10:04.811Z,1.45
2023-03-17T15:12:32.294Z,0.70
2023-03-17T15:15:01.784Z,2.60
2023-03-17T15:17:31.714Z,5.38
2023-03-17T15:20:02.042Z,6.80
2023-03-17T15:22:33.542Z,16.88
2023-03-17T15:25:02.318Z,5.57
2023-03-17T15:27:30.684Z,4.20
2023-03-17T15:29:58.279Z,18.63
2023-03-17T15:32:26.934Z,10.38
2023-03-17T15:34:56.518Z,3.47
2023-03-17T15:37:28.128Z,3.58
2023-03-17T15:39:57.810Z,1.55
2023-03-17T15:42:30.063Z,2.95
2023-03-17T15:44:57.417Z,4.68
2023-03-17T15:47:26.425Z,1.23
2023-03-17T15:49:55.339Z,2.05
2023-03-17T15:52:26.770Z,2.30
2023-03-17T15:54:54.777Z,5.03
2023-03-17T15:57:22.009Z,3.58
2023-03-17T15:59:49.234Z,0.80
2023-03-17T16:02:38.482Z,5.13
2023-03-17T16:05:13.577Z,5.05
2023-03-17T16:07:40.762Z,2.80
2023-03-17T16:10:27.132Z,2.67
2023-03-17T16:12:54.383Z,2.25
2023-03-17T16:15:23.816Z,2.22
2023-03-17T16:17:53.546Z,2.67
2023-03-17T16:20:28.939Z,2.85
2023-03-17T16:22:58.483Z,2.55
2023-03-17T16:25:27.643Z,1.77
2023-03-17T16:27:56.151Z,2.05
2023-03-17T16:30:25.543Z,7.88
2023-03-17T16:32:53.394Z,7.03
2023-03-17T16:35:24.778Z,7.15
2023-03-17T16:37:54.000Z,4.55
2023-03-17T16:40:21.127Z,11.43
2023-03-17T16:42:48.575Z,7.05
2023-03-17T16:45:27.948Z,16.10
2023-03-17T16:47:55.631Z,21.75
2023-03-17T16:50:24.158Z,19.40
2023-03-17T16:52:51.754Z,12.77
2023-03-17T16:55:19.955Z,12.02
2023-03-17T16:57:47.888Z,11.05
2023-03-17T17:00:17.063Z,10.43
2023-03-17T17:02:45.207Z,35.50
2023-03-17T17:05:17.047Z,2.67
2023-03-17T17:07:44.752Z,2.05
2023-03-17T17:10:12.935Z,1.98
2023-03-17T17:12:40.458Z,1.88
2023-03-17T17:15:08.457Z,2.80
2023-03-17T17:17:36.028Z,2.05
2023-03-17T17:20:03.245Z,1.77
2023-03-17T17:22:30.392Z,1.00
2023-03-17T17:24:57.535Z,0.85
2023-03-17T17:27:25.910Z,1.10
2023-03-17T17:29:53.011Z,2.63
2023-03-17T17:32:20.230Z,1.88
2023-03-17T17:34:47.349Z,6.43
2023-03-17T17:37:14.586Z,5.15
2023-03-17T17:39:41.691Z,1.08
2023-03-17T17:42:10.856Z,1.95
2023-03-17T17:44:38.786Z,1.10
2023-03-17T17:47:06.425Z,2.78
2023-03-17T17:49:33.550Z,2.72
2023-03-17T17:52:00.680Z,1.58
2023-03-17T17:54:27.909Z,1.35
2023-03-17T17:56:55.077Z,1.88
2023-03-17T17:59:23.502Z,2.92
2023-03-17T18:01:50.640Z,2.78
2023-03-17T18:04:17.907Z,1.58
2023-03-17T18:06:45.485Z,1.73
2023-03-17T18:09:12.656Z,1.75
2023-03-17T18:11:41.467Z,1.15
2023-03-17T18:14:09.512Z,1.40
2023-03-17T18:16:37.419Z,2.85
2023-03-17T18:19:06.080Z,1.45
2023-03-17T18:21:34.751Z,2.90
2023-03-17T18:24:02.579Z,4.57
2023-03-17T18:26:29.704Z,2.95
2023-03-17T18:28:57.172Z,1.35
2023-03-17T18:31:25.874Z,1.40
2023-03-17T18:33:55.189Z,1.83
2023-03-17T18:36:22.510Z,1.30
2023-03-17T18:38:49.694Z,2.00
2023-03-17T18:41:16.923Z,2.00
2023-03-17T18:43:44.886Z,1.85
2023-03-17T18:46:13.011Z,2.55
2023-03-17T18:48:41.038Z,1.40
2023-03-17T18:51:08.668Z,1.38
2023-03-17T18:53:35.878Z,2.03
2023-03-17T18:56:03.045Z,4.32
2023-03-17T18:58:30.613Z,3.67
2023-03-17T19:01:01.767Z,12.57
2023-03-17T19:03:29.355Z,9.60
2023-03-17T19:05:56.620Z,5.75
2023-03-17T19:08:23.737Z,6.93
2023-03-17T19:10:51.001Z,35.10
2023-03-17T19:13:18.152Z,25.40
2023-03-17T19:15:46.072Z,39.72
2023-03-17T19:18:13.235Z,19.42
2023-03-17T19:20:40.863Z,11.05
2023-03-17T19:23:08.007Z,7.13
2023-03-17T19:25:35.977Z,4.45
2023-03-17T19:28:04.061Z,6.68
2023-03-17T19:30:31.491Z,6.07
2023-03-17T19:32:58.891Z,27.25
2023-03-17T19:35:26.334Z,33.35
2023-03-17T19:37:53.469Z,6.97
2023-03-17T19:40:20.954Z,10.05
2023-03-17T19:42:48.865Z,8.57
2023-03-17T19:45:16.101Z,11.13
2023-03-17T19:47:43.256Z,15.30
2023-03-17T19:50:10.587Z,15.85
2023-03-17T19:52:37.788Z,25.15
2023-03-17T19:55:08.037Z,23.85
2023-03-17T19:57:35.986Z,21.25
2023-03-17T20:00:03.152Z,17.30
2023-03-17T20:02:30.263Z,32.20
2023-03-17T20:04:57.368Z,50.83
2023-03-17T20:07:24.555Z,57.15
2023-03-17T20:09:53.948Z,48.92
2023-03-17T20:12:22.012Z,48.28
2023-03-17T20:14:49.210Z,51.60
2023-03-17T20:17:17.275Z,41.90
2023-03-17T20:19:44.531Z,42.85
2023-03-17T20:22:12.019Z,36.50
2023-03-17T20:24:39.206Z,35.42
2023-03-17T20:27:07.124Z,21.17
2023-03-17T20:29:34.244Z,15.32
2023-03-17T20:32:02.092Z,15.73
2023-03-17T20:34:29.275Z,12.48
2023-03-17T20:36:56.959Z,9.25
2023-03-17T20:39:24.217Z,6.72
2023-03-17T20:41:51.580Z,6.88
2023-03-17T20:44:19.220Z,8.70
2023-03-17T20:46:47.585Z,5.30
2023-03-17T20:49:16.903Z,4.32
2023-03-17T20:51:44.398Z,4.30
2023-03-17T20:54:11.515Z,3.92
2023-03-17T20:56:39.660Z,2.80
2023-03-17T20:59:09.621Z,2.60
2023-03-17T21:01:38.482Z,2.30
2023-03-17T21:04:08.849Z,2.45
2023-03-17T21:06:36.746Z,3.88
2023-03-17T21:09:04.621Z,1.92
2023-03-17T21:11:31.881Z,3.00
2023-03-17T21:13:59.083Z,3.05
2023-03-17T21:16:27.734Z,3.80
2023-03-17T21:18:55.042Z,2.05
2023-03-17T21:21:22.763Z,6.32
2023-03-17T21:23:49.923Z,4.90
2023-03-17T21:26:17.261Z,3.83
2023-03-17T21:28:44.709Z,5.60
2023-03-17T21:31:12.419Z,2.50
2023-03-17T21:33:39.858Z,7.65
2023-03-17T21:36:07.317Z,3.55
2023-03-17T21:38:34.557Z,2.85
2023-03-17T21:41:21.510Z,5.85
2023-03-17T21:43:48.716Z,8.15
2023-03-17T21:46:15.981Z,5.90
2023-03-17T21:48:44.037Z,4.55
2023-03-17T21:51:11.437Z,6.55
2023-03-17T21:53:38.590Z,9.32
2023-03-17T21:56:06.322Z,5.63
2023-03-17T21:58:33.512Z,4.90
2023-03-17T22:01:01.377Z,7.55
2023-03-17T22:03:28.641Z,11.38
2023-03-17T22:05:56.646Z,6.68
2023-03-17T22:08:23.869Z,7.97
2023-03-17T22:10:51.028Z,9.38
2023-03-17T22:13:18.319Z,10.18
2023-03-17T22:15:45.438Z,9.75
2023-03-17T22:18:12.825Z,7.60
2023-03-17T22:20:40.032Z,13.52
2023-03-17T22:23:07.448Z,10.90
2023-03-17T22:25:34.574Z,11.10
2023-03-17T22:28:01.694Z,9.52
2023-03-17T22:30:28.793Z,11.18
2023-03-17T22:32:56.441Z,10.93
2023-03-17T22:35:25.080Z,7.72
2023-03-17T22:37:52.419Z,9.75
2023-03-17T22:40:19.753Z,5.57
2023-03-17T22:42:47.082Z,6.78
2023-03-17T22:45:14.268Z,5.25
2023-03-17T22:47:41.625Z,8.40
2023-03-17T22:50:09.350Z,6.85
2023-03-17T22:52:37.204Z,8.02
2023-03-17T22:55:04.498Z,7.10
2023-03-17T22:57:31.869Z,5.85
2023-03-17T22:59:59.230Z,5.93
2023-03-17T23:02:26.885Z,4.85
2023-03-17T23:04:54.266Z,5.13
2023-03-17T23:07:21.639Z,7.18
2023-03-17T23:09:48.845Z,6.43
2023-03-17T23:12:16.370Z,7.00
2023-03-17T23:14:43.788Z,7.13
2023-03-17T23:17:11.244Z,5.00
2023-03-17T23:19:38.528Z,6.13
2023-03-17T23:22:05.922Z,4.97
2023-03-17T23:24:33.173Z,6.07
2023-03-17T23:27:00.439Z,5.45
2023-03-17T23:29:27.804Z,4.18
2023-03-17T23:31:55.355Z,7.03
2023-03-17T23:34:22.668Z,4.63
2023-03-17T23:36:49.861Z,11.00
2023-03-17T23:39:17.112Z,5.45
2023-03-17T23:41:45.059Z,8.23
2023-03-17T23:44:12.430Z,4.38
2023-03-17T23:46:39.673Z,3.55
2023-03-17T23:49:07.438Z,6.82
2023-03-17T23:51:35.521Z,5.07
2023-03-17T23:54:02.736Z,5.38
2023-03-17T23:56:30.037Z,5.28
2023-03-17T23:58:57.367Z,7.82
